sensor_id;sensor_type;location;lat;lon;timestamp;pressure;altitude;pressure_sealevel;temperature;humidity
45441;BME280;31189;38.790;-77.084;2023-09-19T00:00:45;100863.04;;;28.20;31.38
45441;BME280;31189;38.790;-77.084;2023-09-19T00:03:01;100869.54;;;27.70;31.73
45441;BME280;31189;38.790;-77.084;2023-09-19T00:05:35;100870.28;;;27.36;31.53
45441;BME280;31189;38.790;-77.084;2023-09-19T00:07:58;100870.42;;;26.10;32.46
45441;BME280;31189;38.790;-77.084;2023-09-19T00:10:18;100871.74;;;25.07;33.53
45441;BME280;31189;38.790;-77.084;2023-09-19T00:12:49;100873.45;;;25.30;32.66
45441;BME280;31189;38.790;-77.084;2023-09-19T00:15:14;100878.94;;;25.97;32.96
45441;BME280;31189;38.790;-77.084;2023-09-19T00:17:44;100883.45;;;25.56;33.14
45441;BME280;31189;38.790;-77.084;2023-09-19T00:20:07;100886.06;;;26.02;32.97
45441;BME280;31189;38.790;-77.084;2023-09-19T00:22:31;100888.23;;;25.77;32.57
45441;BME280;31189;38.790;-77.084;2023-09-19T00:24:51;100894.27;;;26.48;32.10
45441;BME280;31189;38.790;-77.084;2023-09-19T00:27:22;100901.29;;;26.41;32.45
45441;BME280;31189;38.790;-77.084;2023-09-19T00:29:42;100908.32;;;25.79;32.73
45441;BME280;31189;38.790;-77.084;2023-09-19T00:32:17;100917.43;;;23.36;35.68
45441;BME280;31189;38.790;-77.084;2023-09-19T00:34:39;100917.53;;;22.04;39.04
45441;BME280;31189;38.790;-77.084;2023-09-19T00:37:04;100924.23;;;23.87;37.14
45441;BME280;31189;38.790;-77.084;2023-09-19T00:39:34;100924.42;;;23.48;37.15
45441;BME280;31189;38.790;-77.084;2023-09-19T00:41:51;100926.75;;;23.65;37.24
45441;BME280;31189;38.790;-77.084;2023-09-19T00:44:23;100931.42;;;24.08;36.68
45441;BME280;31189;38.790;-77.084;2023-09-19T00:46:42;100937.07;;;23.77;36.68
45441;BME280;31189;38.790;-77.084;2023-09-19T00:49:08;100944.03;;;24.44;36.06
45441;BME280;31189;38.790;-77.084;2023-09-19T00:51:37;100949.15;;;24.61;35.96
45441;BME280;31189;38.790;-77.084;2023-09-19T00:54:07;100950.94;;;24.40;35.53
45441;BME280;31189;38.790;-77.084;2023-09-19T00:56:24;100953.76;;;24.72;36.01
45441;BME280;31189;38.790;-77.084;2023-09-19T00:58:49;100962.04;;;24.05;36.13
45441;BME280;31189;38.790;-77.084;2023-09-19T01:01:15;100962.88;;;23.78;36.77
45441;BME280;31189;38.790;-77.084;2023-09-19T01:03:46;100970.17;;;22.83;38.51
45441;BME280;31189;38.790;-77.084;2023-09-19T01:06:06;100971.68;;;22.72;38.75
45441;BME280;31189;38.790;-77.084;2023-09-19T01:08:37;100975.42;;;22.30;39.60
45441;BME280;31189;38.790;-77.084;2023-09-19T01:11:12;100978.05;;;24.03;37.30
45441;BME280;31189;38.790;-77.084;2023-09-19T01:13:35;100975.34;;;22.40;39.21
45441;BME280;31189;38.790;-77.084;2023-09-19T01:15:55;100978.75;;;21.44;40.30
45441;BME280;31189;38.790;-77.084;2023-09-19T01:18:21;100982.01;;;21.57;40.93
45441;BME280;31189;38.790;-77.084;2023-09-19T01:20:53;100985.57;;;23.51;38.29
45441;BME280;31189;38.790;-77.084;2023-09-19T01:23:13;100992.21;;;22.06;39.49
45441;BME280;31189;38.790;-77.084;2023-09-19T01:25:52;100994.88;;;23.52;38.13
45441;BME280;31189;38.790;-77.084;2023-09-19T01:28:09;100996.92;;;24.07;36.85
45441;BME280;31189;38.790;-77.084;2023-09-19T01:30:32;100999.13;;;24.84;35.20
45441;BME280;31189;38.790;-77.084;2023-09-19T01:32:57;101000.17;;;24.14;35.56
45441;BME280;31189;38.790;-77.084;2023-09-19T01:35:19;101002.95;;;23.98;36.58
45441;BME280;31189;38.790;-77.084;2023-09-19T01:37:44;101005.32;;;22.22;37.76
45441;BME280;31189;38.790;-77.084;2023-09-19T01:40:07;101006.45;;;24.86;36.09
45441;BME280;31189;38.790;-77.084;2023-09-19T01:42:40;101003.70;;;23.86;37.10
45441;BME280;31189;38.790;-77.084;2023-09-19T01:45:01;101009.54;;;23.64;36.87
45441;BME280;31189;38.790;-77.084;2023-09-19T01:47:32;101011.40;;;24.03;36.35
45441;BME280;31189;38.790;-77.084;2023-09-19T01:49:59;101012.50;;;22.25;38.45
45441;BME280;31189;38.790;-77.084;2023-09-19T01:52:13;101019.24;;;23.21;38.11
45441;BME280;31189;38.790;-77.084;2023-09-19T01:54:48;101020.70;;;21.70;39.66
45441;BME280;31189;38.790;-77.084;2023-09-19T01:57:13;101018.88;;;22.47;39.41
45441;BME280;31189;38.790;-77.084;2023-09-19T01:59:41;101020.73;;;23.13;38.03
45441;BME280;31189;38.790;-77.084;2023-09-19T02:02:04;101019.10;;;22.03;40.10
45441;BME280;31189;38.790;-77.084;2023-09-19T02:04:25;101021.27;;;22.31;39.74
45441;BME280;31189;38.790;-77.084;2023-09-19T02:06:45;101024.07;;;22.40;39.16
45441;BME280;31189;38.790;-77.084;2023-09-19T02:09:16;101024.98;;;23.00;39.48
45441;BME280;31189;38.790;-77.084;2023-09-19T02:11:41;101026.61;;;23.50;38.54
45441;BME280;31189;38.790;-77.084;2023-09-19T02:14:07;101029.58;;;23.72;37.16
45441;BME280;31189;38.790;-77.084;2023-09-19T02:16:27;101032.54;;;22.21;39.45
45441;BME280;31189;38.790;-77.084;2023-09-19T02:18:58;101038.66;;;23.92;37.74
45441;BME280;31189;38.790;-77.084;2023-09-19T02:21:24;101039.14;;;23.48;37.61
45441;BME280;31189;38.790;-77.084;2023-09-19T02:23:49;101040.86;;;23.23;37.30
45441;BME280;31189;38.790;-77.084;2023-09-19T02:26:10;101039.46;;;22.74;39.13
45441;BME280;31189;38.790;-77.084;2023-09-19T02:28:35;101042.87;;;23.89;37.19
45441;BME280;31189;38.790;-77.084;2023-09-19T02:31:06;101045.62;;;24.52;36.28
45441;BME280;31189;38.790;-77.084;2023-09-19T02:33:27;101045.52;;;24.26;36.38
45441;BME280;31189;38.790;-77.084;2023-09-19T02:35:58;101046.84;;;22.83;38.91
45441;BME280;31189;38.790;-77.084;2023-09-19T02:38:18;101054.79;;;24.02;37.38
45441;BME280;31189;38.790;-77.084;2023-09-19T02:40:49;101060.89;;;23.99;37.17
45441;BME280;31189;38.790;-77.084;2023-09-19T02:43:14;101061.29;;;23.41;37.85
45441;BME280;31189;38.790;-77.084;2023-09-19T02:45:39;101067.69;;;24.17;36.99
45441;BME280;31189;38.790;-77.084;2023-09-19T02:48:05;101071.88;;;24.63;36.96
45441;BME280;31189;38.790;-77.084;2023-09-19T02:50:26;101074.48;;;22.27;38.60
45441;BME280;31189;38.790;-77.084;2023-09-19T02:52:51;101072.29;;;22.89;38.63
45441;BME280;31189;38.790;-77.084;2023-09-19T02:55:19;101073.51;;;20.98;41.82
45441;BME280;31189;38.790;-77.084;2023-09-19T02:57:46;101073.53;;;23.09;38.85
45441;BME280;31189;38.790;-77.084;2023-09-19T03:00:08;101078.33;;;23.18;38.83
45441;BME280;31189;38.790;-77.084;2023-09-19T03:02:33;101081.89;;;23.20;39.14
45441;BME280;31189;38.790;-77.084;2023-09-19T03:04:58;101085.46;;;23.71;37.63
45441;BME280;31189;38.790;-77.084;2023-09-19T03:07:24;101089.83;;;23.07;38.19
45441;BME280;31189;38.790;-77.084;2023-09-19T03:09:50;101094.44;;;23.27;38.58
45441;BME280;31189;38.790;-77.084;2023-09-19T03:12:15;101098.03;;;23.21;38.46
45441;BME280;31189;38.790;-77.084;2023-09-19T03:14:40;101093.32;;;22.77;39.48
45441;BME280;31189;38.790;-77.084;2023-09-19T03:17:06;101097.01;;;22.38;39.17
45441;BME280;31189;38.790;-77.084;2023-09-19T03:19:32;101094.83;;;23.81;38.15
45441;BME280;31189;38.790;-77.084;2023-09-19T03:21:57;101098.21;;;23.87;37.25
45441;BME280;31189;38.790;-77.084;2023-09-19T03:24:23;101101.76;;;22.82;39.08
45441;BME280;31189;38.790;-77.084;2023-09-19T03:26:48;101106.75;;;22.91;40.20
45441;BME280;31189;38.790;-77.084;2023-09-19T03:29:14;101101.69;;;23.30;39.18
45441;BME280;31189;38.790;-77.084;2023-09-19T03:31:40;101100.51;;;23.66;38.26
45441;BME280;31189;38.790;-77.084;2023-09-19T03:34:05;101109.81;;;20.76;41.55
45441;BME280;31189;38.790;-77.084;2023-09-19T03:36:31;101109.73;;;21.31;41.15
45441;BME280;31189;38.790;-77.084;2023-09-19T03:38:57;101107.77;;;22.23;40.43
45441;BME280;31189;38.790;-77.084;2023-09-19T03:41:22;101106.23;;;22.10;41.18
45441;BME280;31189;38.790;-77.084;2023-09-19T03:43:48;101103.95;;;22.36;40.74
45441;BME280;31189;38.790;-77.084;2023-09-19T03:46:13;101108.23;;;22.33;40.36
45441;BME280;31189;38.790;-77.084;2023-09-19T03:48:39;101110.32;;;21.35;43.05
45441;BME280;31189;38.790;-77.084;2023-09-19T03:51:05;101110.70;;;20.45;44.59
45441;BME280;31189;38.790;-77.084;2023-09-19T03:53:30;101109.87;;;19.62;47.49
45441;BME280;31189;38.790;-77.084;2023-09-19T03:55:56;101106.56;;;18.78;49.62
45441;BME280;31189;38.790;-77.084;2023-09-19T03:58:22;101108.95;;;19.02;48.43
45441;BME280;31189;38.790;-77.084;2023-09-19T04:00:48;101112.30;;;21.27;44.89
45441;BME280;31189;38.790;-77.084;2023-09-19T04:03:13;101107.52;;;21.43;43.85
45441;BME280;31189;38.790;-77.084;2023-09-19T04:05:39;101113.10;;;18.60;49.17
45441;BME280;31189;38.790;-77.084;2023-09-19T04:08:05;101116.36;;;20.30;47.20
45441;BME280;31189;38.790;-77.084;2023-09-19T04:10:30;101119.80;;;18.60;49.54
45441;BME280;31189;38.790;-77.084;2023-09-19T04:12:56;101121.90;;;18.91;48.53
45441;BME280;31189;38.790;-77.084;2023-09-19T04:15:21;101125.58;;;19.93;46.60
45441;BME280;31189;38.790;-77.084;2023-09-19T04:17:46;101128.06;;;21.27;45.23
45441;BME280;31189;38.790;-77.084;2023-09-19T04:20:12;101129.56;;;19.49;46.81
45441;BME280;31189;38.790;-77.084;2023-09-19T04:22:37;101123.95;;;19.12;49.31
45441;BME280;31189;38.790;-77.084;2023-09-19T04:25:02;101129.11;;;20.15;47.00
45441;BME280;31189;38.790;-77.084;2023-09-19T04:27:28;101130.40;;;19.36;49.92
45441;BME280;31189;38.790;-77.084;2023-09-19T04:29:53;101134.25;;;20.85;45.95
45441;BME280;31189;38.790;-77.084;2023-09-19T04:32:19;101137.71;;;20.00;46.15
45441;BME280;31189;38.790;-77.084;2023-09-19T04:34:44;101139.14;;;19.29;48.53
45441;BME280;31189;38.790;-77.084;2023-09-19T04:37:10;101145.70;;;20.33;47.01
45441;BME280;31189;38.790;-77.084;2023-09-19T04:39:35;101149.39;;;21.52;44.97
45441;BME280;31189;38.790;-77.084;2023-09-19T04:42:01;101148.53;;;20.43;45.66
45441;BME280;31189;38.790;-77.084;2023-09-19T04:44:26;101155.02;;;20.75;46.28
45441;BME280;31189;38.790;-77.084;2023-09-19T04:46:51;101151.70;;;20.44;45.16
45441;BME280;31189;38.790;-77.084;2023-09-19T04:49:17;101156.08;;;20.44;46.10
45441;BME280;31189;38.790;-77.084;2023-09-19T04:51:42;101159.21;;;21.32;44.51
45441;BME280;31189;38.790;-77.084;2023-09-19T04:54:08;101160.13;;;21.33;44.56
45441;BME280;31189;38.790;-77.084;2023-09-19T04:56:34;101162.41;;;21.08;44.48
45441;BME280;31189;38.790;-77.084;2023-09-19T04:58:59;101165.26;;;19.54;47.35
45441;BME280;31189;38.790;-77.084;2023-09-19T05:01:25;101166.01;;;19.86;48.18
45441;BME280;31189;38.790;-77.084;2023-09-19T05:03:50;101173.83;;;20.22;47.20
45441;BME280;31189;38.790;-77.084;2023-09-19T05:06:16;101172.90;;;19.14;49.08
45441;BME280;31189;38.790;-77.084;2023-09-19T05:08:41;101175.17;;;20.05;48.03
45441;BME280;31189;38.790;-77.084;2023-09-19T05:11:06;101179.12;;;19.49;48.83
45441;BME280;31189;38.790;-77.084;2023-09-19T05:13:32;101185.04;;;18.15;53.40
45441;BME280;31189;38.790;-77.084;2023-09-19T05:16:00;101184.51;;;19.62;49.51
45441;BME280;31189;38.790;-77.084;2023-09-19T05:18:23;101190.09;;;17.90;52.99
45441;BME280;31189;38.790;-77.084;2023-09-19T05:20:48;101189.72;;;17.93;54.01
45441;BME280;31189;38.790;-77.084;2023-09-19T05:23:14;101190.71;;;19.52;49.76
45441;BME280;31189;38.790;-77.084;2023-09-19T05:25:40;101194.67;;;19.68;48.65
45441;BME280;31189;38.790;-77.084;2023-09-19T05:28:06;101198.49;;;20.31;48.72
45441;BME280;31189;38.790;-77.084;2023-09-19T05:30:31;101196.29;;;19.36;49.76
45441;BME280;31189;38.790;-77.084;2023-09-19T05:32:56;101200.44;;;20.64;46.06
45441;BME280;31189;38.790;-77.084;2023-09-19T05:35:22;101199.10;;;20.67;45.80
45441;BME280;31189;38.790;-77.084;2023-09-19T05:37:48;101202.31;;;21.29;45.23
45441;BME280;31189;38.790;-77.084;2023-09-19T05:40:13;101208.36;;;20.60;46.26
45441;BME280;31189;38.790;-77.084;2023-09-19T05:42:38;101204.52;;;19.01;49.25
45441;BME280;31189;38.790;-77.084;2023-09-19T05:45:04;101209.68;;;18.22;52.57
45441;BME280;31189;38.790;-77.084;2023-09-19T05:47:29;101208.19;;;18.31;51.55
45441;BME280;31189;38.790;-77.084;2023-09-19T05:49:55;101208.26;;;20.48;47.87
45441;BME280;31189;38.790;-77.084;2023-09-19T05:52:20;101204.86;;;20.12;47.61
45441;BME280;31189;38.790;-77.084;2023-09-19T05:54:46;101200.88;;;19.99;48.36
45441;BME280;31189;38.790;-77.084;2023-09-19T05:57:11;101196.14;;;18.40;51.24
45441;BME280;31189;38.790;-77.084;2023-09-19T05:59:36;101194.94;;;20.43;48.10
45441;BME280;31189;38.790;-77.084;2023-09-19T06:02:02;101194.31;;;19.86;48.01
45441;BME280;31189;38.790;-77.084;2023-09-19T06:04:27;101196.80;;;20.36;47.42
45441;BME280;31189;38.790;-77.084;2023-09-19T06:06:53;101199.48;;;19.73;48.42
45441;BME280;31189;38.790;-77.084;2023-09-19T06:09:18;101204.51;;;21.10;45.14
45441;BME280;31189;38.790;-77.084;2023-09-19T06:11:44;101205.50;;;20.85;44.83
45441;BME280;31189;38.790;-77.084;2023-09-19T06:14:10;101204.55;;;20.52;45.62
45441;BME280;31189;38.790;-77.084;2023-09-19T06:16:35;101206.27;;;20.87;46.42
45441;BME280;31189;38.790;-77.084;2023-09-19T06:19:01;101204.39;;;18.81;49.59
45441;BME280;31189;38.790;-77.084;2023-09-19T06:21:27;101206.65;;;18.97;49.01
45441;BME280;31189;38.790;-77.084;2023-09-19T06:23:53;101214.95;;;19.79;47.59
45441;BME280;31189;38.790;-77.084;2023-09-19T06:26:18;101218.95;;;18.27;49.40
45441;BME280;31189;38.790;-77.084;2023-09-19T06:28:43;101220.59;;;20.73;45.17
45441;BME280;31189;38.790;-77.084;2023-09-19T06:31:09;101221.37;;;21.00;44.71
45441;BME280;31189;38.790;-77.084;2023-09-19T06:33:34;101219.07;;;20.85;45.37
45441;BME280;31189;38.790;-77.084;2023-09-19T06:36:00;101219.89;;;20.31;45.94
45441;BME280;31189;38.790;-77.084;2023-09-19T06:38:25;101219.05;;;19.01;48.80
45441;BME280;31189;38.790;-77.084;2023-09-19T06:40:51;101218.42;;;20.81;46.13
45441;BME280;31189;38.790;-77.084;2023-09-19T06:43:16;101219.57;;;20.58;45.85
45441;BME280;31189;38.790;-77.084;2023-09-19T06:45:41;101218.23;;;20.91;45.28
45441;BME280;31189;38.790;-77.084;2023-09-19T06:48:07;101215.85;;;20.51;45.59
45441;BME280;31189;38.790;-77.084;2023-09-19T06:50:33;101213.51;;;19.07;48.65
45441;BME280;31189;38.790;-77.084;2023-09-19T06:52:58;101213.94;;;19.92;46.89
45441;BME280;31189;38.790;-77.084;2023-09-19T06:55:24;101214.50;;;20.09;46.63
45441;BME280;31189;38.790;-77.084;2023-09-19T06:57:50;101215.14;;;19.28;48.00
45441;BME280;31189;38.790;-77.084;2023-09-19T07:00:16;101220.17;;;19.47;47.29
45441;BME280;31189;38.790;-77.084;2023-09-19T07:02:40;101218.60;;;20.60;44.95
45441;BME280;31189;38.790;-77.084;2023-09-19T07:05:06;101219.19;;;19.70;46.48
45441;BME280;31189;38.790;-77.084;2023-09-19T07:07:31;101220.35;;;20.63;45.10
45441;BME280;31189;38.790;-77.084;2023-09-19T07:09:56;101222.13;;;21.29;43.36
45441;BME280;31189;38.790;-77.084;2023-09-19T07:12:22;101217.25;;;20.64;44.75
45441;BME280;31189;38.790;-77.084;2023-09-19T07:14:47;101214.28;;;19.36;47.45
45441;BME280;31189;38.790;-77.084;2023-09-19T07:17:13;101214.48;;;19.00;49.00
45441;BME280;31189;38.790;-77.084;2023-09-19T07:19:38;101216.64;;;19.92;46.79
45441;BME280;31189;38.790;-77.084;2023-09-19T07:22:05;101216.61;;;19.98;45.81
45441;BME280;31189;38.790;-77.084;2023-09-19T07:24:30;101218.67;;;19.89;45.79
45441;BME280;31189;38.790;-77.084;2023-09-19T07:26:55;101217.94;;;19.90;46.73
45441;BME280;31189;38.790;-77.084;2023-09-19T07:29:21;101218.31;;;19.85;46.96
45441;BME280;31189;38.790;-77.084;2023-09-19T07:31:46;101219.21;;;19.90;44.92
45441;BME280;31189;38.790;-77.084;2023-09-19T07:34:12;101223.00;;;20.15;44.13
45441;BME280;31189;38.790;-77.084;2023-09-19T07:36:37;101223.78;;;20.97;43.32
45441;BME280;31189;38.790;-77.084;2023-09-19T07:39:03;101222.34;;;21.47;42.19
45441;BME280;31189;38.790;-77.084;2023-09-19T07:41:28;101220.43;;;21.88;41.53
45441;BME280;31189;38.790;-77.084;2023-09-19T07:43:54;101222.42;;;21.50;41.95
45441;BME280;31189;38.790;-77.084;2023-09-19T07:46:19;101225.88;;;22.08;40.84
45441;BME280;31189;38.790;-77.084;2023-09-19T07:48:45;101228.56;;;22.86;40.12
45441;BME280;31189;38.790;-77.084;2023-09-19T07:51:10;101230.83;;;22.28;40.80
45441;BME280;31189;38.790;-77.084;2023-09-19T07:53:35;101232.51;;;21.40;42.23
45441;BME280;31189;38.790;-77.084;2023-09-19T07:56:05;101235.11;;;21.26;43.12
45441;BME280;31189;38.790;-77.084;2023-09-19T07:58:26;101236.79;;;21.33;42.48
45441;BME280;31189;38.790;-77.084;2023-09-19T08:00:52;101237.26;;;21.50;42.05
45441;BME280;31189;38.790;-77.084;2023-09-19T08:03:18;101234.07;;;22.14;41.91
45441;BME280;31189;38.790;-77.084;2023-09-19T08:05:44;101233.94;;;21.03;42.88
45441;BME280;31189;38.790;-77.084;2023-09-19T08:08:09;101233.18;;;19.80;45.04
45441;BME280;31189;38.790;-77.084;2023-09-19T08:10:34;101230.46;;;21.15;43.23
45441;BME280;31189;38.790;-77.084;2023-09-19T08:13:00;101229.74;;;20.56;43.49
45441;BME280;31189;38.790;-77.084;2023-09-19T08:15:25;101231.39;;;21.19;42.49
45441;BME280;31189;38.790;-77.084;2023-09-19T08:17:51;101233.87;;;21.51;41.68
45441;BME280;31189;38.790;-77.084;2023-09-19T08:20:16;101232.96;;;21.64;41.87
45441;BME280;31189;38.790;-77.084;2023-09-19T08:22:44;101231.97;;;20.99;43.29
45441;BME280;31189;38.790;-77.084;2023-09-19T08:25:07;101232.52;;;21.07;43.14
45441;BME280;31189;38.790;-77.084;2023-09-19T08:27:32;101232.24;;;21.11;42.53
45441;BME280;31189;38.790;-77.084;2023-09-19T08:29:58;101228.32;;;20.57;44.16
45441;BME280;31189;38.790;-77.084;2023-09-19T08:32:23;101228.67;;;19.74;45.93
45441;BME280;31189;38.790;-77.084;2023-09-19T08:34:49;101233.29;;;18.51;48.41
45441;BME280;31189;38.790;-77.084;2023-09-19T08:37:14;101233.88;;;18.93;48.30
45441;BME280;31189;38.790;-77.084;2023-09-19T08:39:40;101239.39;;;18.53;50.42
45441;BME280;31189;38.790;-77.084;2023-09-19T08:42:06;101239.46;;;19.46;48.22
45441;BME280;31189;38.790;-77.084;2023-09-19T08:44:37;101244.34;;;17.21;52.88
45441;BME280;31189;38.790;-77.084;2023-09-19T08:47:05;101246.00;;;18.05;50.40
45441;BME280;31189;38.790;-77.084;2023-09-19T08:49:33;101250.78;;;16.19;53.50
45441;BME280;31189;38.790;-77.084;2023-09-19T08:51:53;101245.18;;;19.52;47.50
45441;BME280;31189;38.790;-77.084;2023-09-19T08:54:22;101243.68;;;19.90;46.21
45441;BME280;31189;38.790;-77.084;2023-09-19T08:56:40;101243.54;;;19.42;47.86
45441;BME280;31189;38.790;-77.084;2023-09-19T08:59:06;101243.93;;;19.45;46.57
45441;BME280;31189;38.790;-77.084;2023-09-19T09:01:31;101245.15;;;19.57;46.74
45441;BME280;31189;38.790;-77.084;2023-09-19T09:03:56;101251.37;;;19.33;47.72
45441;BME280;31189;38.790;-77.084;2023-09-19T09:06:22;101255.06;;;19.84;46.18
45441;BME280;31189;38.790;-77.084;2023-09-19T09:08:47;101259.55;;;20.39;45.87
45441;BME280;31189;38.790;-77.084;2023-09-19T09:11:15;101260.54;;;19.89;46.56
45441;BME280;31189;38.790;-77.084;2023-09-19T09:13:38;101264.22;;;20.20;45.48
45441;BME280;31189;38.790;-77.084;2023-09-19T09:16:04;101265.07;;;19.51;46.83
45441;BME280;31189;38.790;-77.084;2023-09-19T09:18:29;101269.04;;;20.04;46.30
45441;BME280;31189;38.790;-77.084;2023-09-19T09:20:55;101273.69;;;19.60;47.26
45441;BME280;31189;38.790;-77.084;2023-09-19T09:23:21;101278.84;;;19.53;46.73
45441;BME280;31189;38.790;-77.084;2023-09-19T09:25:49;101286.89;;;20.45;45.76
45441;BME280;31189;38.790;-77.084;2023-09-19T09:28:12;101289.60;;;20.36;45.74
45441;BME280;31189;38.790;-77.084;2023-09-19T09:30:38;101289.27;;;19.40;47.59
45441;BME280;31189;38.790;-77.084;2023-09-19T09:33:09;101294.05;;;18.66;48.38
45441;BME280;31189;38.790;-77.084;2023-09-19T09:35:29;101296.52;;;19.12;47.86
45441;BME280;31189;38.790;-77.084;2023-09-19T09:37:59;101302.08;;;17.71;49.99
45441;BME280;31189;38.790;-77.084;2023-09-19T09:40:20;101298.68;;;19.58;46.57
45441;BME280;31189;38.790;-77.084;2023-09-19T09:42:46;101302.54;;;18.40;48.51
45441;BME280;31189;38.790;-77.084;2023-09-19T09:45:17;101304.59;;;18.16;49.55
45441;BME280;31189;38.790;-77.084;2023-09-19T09:47:41;101310.01;;;19.00;47.45
45441;BME280;31189;38.790;-77.084;2023-09-19T09:50:02;101310.98;;;19.29;47.93
45441;BME280;31189;38.790;-77.084;2023-09-19T09:52:28;101310.67;;;19.14;46.97
45441;BME280;31189;38.790;-77.084;2023-09-19T09:55:01;101312.57;;;19.79;46.76
45441;BME280;31189;38.790;-77.084;2023-09-19T09:57:19;101309.55;;;19.79;46.07
45441;BME280;31189;38.790;-77.084;2023-09-19T09:59:46;101309.31;;;20.13;45.06
45441;BME280;31189;38.790;-77.084;2023-09-19T10:02:10;101312.13;;;19.39;46.13
45441;BME280;31189;38.790;-77.084;2023-09-19T10:04:35;101313.59;;;19.34;46.61
45441;BME280;31189;38.790;-77.084;2023-09-19T10:07:01;101317.54;;;20.00;46.08
45441;BME280;31189;38.790;-77.084;2023-09-19T10:09:26;101319.18;;;18.91;47.76
45441;BME280;31189;38.790;-77.084;2023-09-19T10:12:04;101322.02;;;19.21;47.78
45441;BME280;31189;38.790;-77.084;2023-09-19T10:14:18;101321.31;;;19.31;47.17
45441;BME280;31189;38.790;-77.084;2023-09-19T10:16:47;101319.78;;;19.17;47.11
45441;BME280;31189;38.790;-77.084;2023-09-19T10:19:09;101324.29;;;18.13;50.23
45441;BME280;31189;38.790;-77.084;2023-09-19T10:21:35;101321.12;;;18.87;49.14
45441;BME280;31189;38.790;-77.084;2023-09-19T10:24:00;101325.84;;;19.44;48.16
45441;BME280;31189;38.790;-77.084;2023-09-19T10:26:26;101330.26;;;18.78;48.44
45441;BME280;31189;38.790;-77.084;2023-09-19T10:28:52;101331.89;;;19.59;46.68
45441;BME280;31189;38.790;-77.084;2023-09-19T10:31:19;101338.16;;;19.93;45.48
45441;BME280;31189;38.790;-77.084;2023-09-19T10:33:43;101342.86;;;20.39;45.07
45441;BME280;31189;38.790;-77.084;2023-09-19T10:36:08;101348.67;;;20.57;43.94
45441;BME280;31189;38.790;-77.084;2023-09-19T10:38:33;101356.51;;;21.59;42.16
45441;BME280;31189;38.790;-77.084;2023-09-19T10:41:00;101365.08;;;21.69;41.72
45441;BME280;31189;38.790;-77.084;2023-09-19T10:43:29;101371.57;;;21.81;41.02
45441;BME280;31189;38.790;-77.084;2023-09-19T10:45:51;101379.58;;;22.20;40.31
45441;BME280;31189;38.790;-77.084;2023-09-19T10:48:16;101385.77;;;22.00;40.60
45441;BME280;31189;38.790;-77.084;2023-09-19T10:50:46;101390.38;;;20.74;42.64
45441;BME280;31189;38.790;-77.084;2023-09-19T10:53:08;101393.62;;;20.49;42.81
45441;BME280;31189;38.790;-77.084;2023-09-19T10:55:34;101395.26;;;21.00;42.47
45441;BME280;31189;38.790;-77.084;2023-09-19T10:57:59;101398.32;;;18.75;44.53
45441;BME280;31189;38.790;-77.084;2023-09-19T11:00:24;101404.96;;;19.15;45.95
45441;BME280;31189;38.790;-77.084;2023-09-19T11:05:15;101414.78;;;20.38;44.21
45441;BME280;31189;38.790;-77.084;2023-09-19T11:10:06;101416.52;;;19.25;44.99
45441;BME280;31189;38.790;-77.084;2023-09-19T11:14:57;101424.14;;;21.58;42.46
45441;BME280;31189;38.790;-77.084;2023-09-19T11:17:32;101424.05;;;20.87;42.70
45441;BME280;31189;38.790;-77.084;2023-09-19T11:22:14;101438.85;;;20.60;43.37
45441;BME280;31189;38.790;-77.084;2023-09-19T11:24:39;101442.13;;;19.41;46.93
45441;BME280;31189;38.790;-77.084;2023-09-19T11:27:12;101450.70;;;19.41;46.16
45441;BME280;31189;38.790;-77.084;2023-09-19T11:29:31;101455.49;;;19.87;45.62
45441;BME280;31189;38.790;-77.084;2023-09-19T11:31:56;101460.50;;;20.02;45.66
45441;BME280;31189;38.790;-77.084;2023-09-19T11:36:46;101463.25;;;19.46;46.30
45441;BME280;31189;38.790;-77.084;2023-09-19T11:41:38;101469.32;;;18.85;48.68
45441;BME280;31189;38.790;-77.084;2023-09-19T11:46:30;101476.19;;;19.15;48.56
45441;BME280;31189;38.790;-77.084;2023-09-19T11:48:55;101474.26;;;19.59;46.37
45441;BME280;31189;38.790;-77.084;2023-09-19T11:51:21;101480.41;;;20.17;46.38
45441;BME280;31189;38.790;-77.084;2023-09-19T11:53:46;101486.28;;;19.23;47.38
45441;BME280;31189;38.790;-77.084;2023-09-19T11:56:11;101489.66;;;19.26;47.38
45441;BME280;31189;38.790;-77.084;2023-09-19T11:58:37;101491.29;;;20.00;46.06
45441;BME280;31189;38.790;-77.084;2023-09-19T12:01:02;101499.94;;;19.21;46.63
45441;BME280;31189;38.790;-77.084;2023-09-19T12:03:29;101499.14;;;20.14;45.44
45441;BME280;31189;38.790;-77.084;2023-09-19T12:05:53;101503.03;;;20.12;46.04
45441;BME280;31189;38.790;-77.084;2023-09-19T12:08:18;101503.90;;;18.41;48.51
45441;BME280;31189;38.790;-77.084;2023-09-19T12:10:46;101502.07;;;17.21;51.55
45441;BME280;31189;38.790;-77.084;2023-09-19T12:13:09;101504.53;;;17.15;52.58
45441;BME280;31189;38.790;-77.084;2023-09-19T12:15:36;101504.67;;;17.59;52.07
45441;BME280;31189;38.790;-77.084;2023-09-19T12:18:00;101502.01;;;19.38;48.64
45441;BME280;31189;38.790;-77.084;2023-09-19T12:22:51;101506.82;;;19.22;48.11
45441;BME280;31189;38.790;-77.084;2023-09-19T12:25:17;101502.83;;;20.11;46.63
45441;BME280;31189;38.790;-77.084;2023-09-19T12:27:43;101507.35;;;20.05;46.01
45441;BME280;31189;38.790;-77.084;2023-09-19T12:30:08;101506.99;;;19.25;47.85
45441;BME280;31189;38.790;-77.084;2023-09-19T12:32:36;101510.82;;;19.48;46.55
45441;BME280;31189;38.790;-77.084;2023-09-19T12:34:58;101512.60;;;19.65;47.36
45441;BME280;31189;38.790;-77.084;2023-09-19T12:37:23;101510.76;;;20.53;44.47
45441;BME280;31189;38.790;-77.084;2023-09-19T12:39:51;101513.97;;;19.20;46.90